createdAt,value
2017-03-24T17:08:19.189Z,1492
2017-03-24T17:08:59.844Z,1472
2017-03-24T17:09:40.504Z,1448
2017-03-24T17:10:21.151Z,1440
2017-03-24T17:11:01.796Z,1424
2017-03-24T17:11:42.458Z,1400
2017-03-24T17:12:23.108Z,1380
2017-03-24T17:13:03.767Z,1372
2017-03-24T17:13:44.326Z,1344
2017-03-24T17:14:24.964Z,1316
2017-03-24T17:15:05.619Z,1280
2017-03-24T17:15:46.305Z,1248
2017-03-24T17:16:26.924Z,1216
2017-03-24T17:17:07.575Z,1184
2017-03-24T17:17:48.228Z,1160
2017-03-24T17:18:28.881Z,1132
2017-03-24T17:19:09.532Z,1108
2017-03-24T17:19:50.189Z,1084
2017-03-24T17:20:30.771Z,1056
2017-03-24T17:21:11.337Z,1032
2017-03-24T17:21:51.993Z,1000
2017-03-24T17:22:32.586Z,976
2017-03-24T17:23:13.146Z,952
2017-03-24T17:23:53.750Z,924
2017-03-24T17:24:34.355Z,896
2017-03-24T17:25:14.925Z,868
2017-03-24T17:25:55.556Z,844
2017-03-24T17:26:36.233Z,824
2017-03-24T17:27:16.856Z,804
2017-03-24T17:27:57.458Z,776
2017-03-24T17:28:38.065Z,752
2017-03-24T17:29:18.638Z,728
2017-03-24T17:29:59.365Z,700
2017-03-24T17:30:39.939Z,676
2017-03-24T17:31:21.656Z,648
2017-03-24T17:32:02.251Z,628
2017-03-24T17:32:42.819Z,600
2017-03-24T17:33:24.495Z,580
2017-03-24T17:34:09.837Z,556
2017-03-24T17:34:50.434Z,532
2017-03-24T17:35:31.191Z,512
2017-03-24T17:36:11.844Z,496
2017-03-24T17:36:52.525Z,472
2017-03-24T17:37:33.197Z,452
2017-03-24T17:38:14.834Z,432
2017-03-24T17:38:55.482Z,408
2017-03-24T17:39:36.150Z,388
2017-03-24T17:40:16.803Z,376
2017-03-24T17:40:57.414Z,352
2017-03-24T17:41:38.042Z,336
2017-03-24T17:42:18.628Z,316
2017-03-24T17:42:59.315Z,296
2017-03-24T17:43:39.904Z,276
2017-03-24T17:44:20.501Z,260
2017-03-24T17:45:01.059Z,244
2017-03-24T17:45:41.665Z,228
2017-03-24T17:46:22.266Z,212
2017-03-24T17:47:02.909Z,200
2017-03-24T17:47:43.473Z,188
2017-03-24T17:48:24.068Z,176
2017-03-24T17:49:04.686Z,168
2017-03-24T17:49:45.329Z,156
2017-03-24T17:50:25.912Z,144
2017-03-24T17:51:06.607Z,136
2017-03-24T17:51:47.246Z,128
2017-03-24T17:52:27.881Z,120
2017-03-24T17:53:08.548Z,112
2017-03-24T17:53:49.206Z,104
2017-03-24T17:54:29.859Z,96
2017-03-24T17:55:11.535Z,92
2017-03-24T17:55:52.131Z,84
2017-03-24T17:56:32.699Z,76
2017-03-24T17:57:13.338Z,72
2017-03-24T17:57:53.985Z,68
2017-03-24T17:58:34.554Z,60
2017-03-24T17:59:15.179Z,56
2017-03-24T17:59:55.838Z,48
2017-03-24T18:00:36.425Z,44
2017-03-24T18:01:17.046Z,40
2017-03-24T18:01:57.688Z,40
2017-03-24T18:02:38.254Z,32
2017-03-24T18:03:18.904Z,28
2017-03-24T18:03:59.554Z,28
2017-03-24T18:04:40.120Z,28
2017-03-24T18:05:20.764Z,24
2017-03-24T18:06:01.499Z,20
2017-03-24T18:06:42.182Z,16
2017-03-24T18:07:22.800Z,16
2017-03-24T18:08:03.475Z,12
2017-03-24T18:08:44.122Z,12
2017-03-24T18:09:24.779Z,12
2017-03-24T18:10:05.420Z,8
2017-03-24T18:10:46.080Z,8
2017-03-24T18:11:26.666Z,8
2017-03-24T18:12:07.334Z,4
2017-03-24T18:12:47.929Z,8
2017-03-24T18:13:28.599Z,8
2017-03-24T18:14:09.169Z,4
2017-03-24T18:14:49.751Z,4
2017-03-24T18:15:30.354Z,8
2017-03-24T18:16:11.006Z,4
2017-03-24T18:16:51.675Z,4
2017-03-24T18:17:32.314Z,4
2017-03-24T18:18:12.943Z,0
2017-03-24T18:18:53.605Z,4
2017-03-24T18:19:34.258Z,4
2017-03-24T18:20:14.929Z,4
2017-03-24T18:20:55.562Z,4
2017-03-24T18:21:36.224Z,4
2017-03-24T18:22:16.871Z,0
2017-03-24T18:22:57.517Z,0
2017-03-24T18:23:38.181Z,0
2017-03-24T18:24:18.860Z,0
2017-03-24T18:24:59.488Z,0
2017-03-24T18:25:40.079Z,0
2017-03-24T18:26:20.758Z,0
2017-03-24T18:27:01.358Z,0
2017-03-24T18:27:42.001Z,0
2017-03-24T18:28:22.581Z,0
2017-03-24T18:29:03.261Z,0
2017-03-24T18:29:43.886Z,0
2017-03-24T18:30:24.507Z,0
2017-03-24T18:31:05.161Z,0
2017-03-24T18:31:45.825Z,0
2017-03-24T18:32:26.502Z,0
2017-03-24T18:33:07.122Z,0
2017-03-24T18:33:47.789Z,0
2017-03-24T18:34:28.431Z,0
2017-03-24T18:35:09.071Z,0
2017-03-24T18:35:49.731Z,0
2017-03-24T18:36:30.405Z,0
2017-03-24T18:37:11.040Z,0
2017-03-24T18:37:51.696Z,0
2017-03-24T18:38:32.331Z,0
2017-03-24T18:39:12.987Z,0
2017-03-24T18:39:53.756Z,0
2017-03-24T18:40:34.425Z,0
2017-03-24T18:41:15.052Z,0
2017-03-24T18:41:55.704Z,0
2017-03-24T18:42:36.357Z,0
2017-03-24T18:43:17.045Z,0
2017-03-24T18:43:57.694Z,0
2017-03-24T18:44:38.387Z,0
2017-03-24T18:45:18.972Z,0
2017-03-24T18:45:59.547Z,0
2017-03-24T18:46:40.164Z,0
2017-03-24T18:47:20.827Z,0
2017-03-24T18:48:01.472Z,0
2017-03-24T18:48:42.022Z,0
2017-03-24T18:49:22.679Z,0
2017-03-24T18:50:03.598Z,0
2017-03-24T18:50:44.301Z,0
2017-03-24T18:51:24.987Z,0
2017-03-24T18:52:05.627Z,0
2017-03-24T18:52:46.253Z,0
2017-03-24T18:53:28.927Z,0
2017-03-24T18:54:09.582Z,0
2017-03-24T18:54:55.857Z,0
2017-03-24T18:55:36.419Z,0
2017-03-24T18:56:18.070Z,0
2017-03-24T18:57:00.689Z,0
2017-03-24T18:57:41.327Z,0
2017-03-24T18:58:21.954Z,0
2017-03-24T18:59:02.614Z,0
2017-03-24T18:59:43.292Z,0
2017-03-24T19:00:23.943Z,0
2017-03-24T19:01:05.629Z,0
2017-03-24T19:01:50.889Z,0
2017-03-24T19:02:31.544Z,0
2017-03-24T19:03:13.219Z,0
2017-03-24T19:03:53.875Z,0
2017-03-24T19:04:34.511Z,0
2017-03-24T19:05:15.173Z,0
2017-03-24T19:05:55.776Z,0
2017-03-24T19:10:58.096Z,0
2017-03-24T19:11:38.852Z,0
2017-03-24T19:12:19.631Z,0
2017-03-24T19:13:00.369Z,0
2017-03-24T19:13:41.122Z,0
2017-03-24T19:14:21.873Z,0
2017-03-24T19:15:02.631Z,0
2017-03-24T19:15:43.279Z,0
2017-03-24T19:16:23.884Z,0
2017-03-24T19:17:04.481Z,0
2017-03-24T19:17:45.152Z,0
2017-03-24T19:18:25.789Z,0
2017-03-24T19:19:06.541Z,0
2017-03-24T19:19:47.207Z,0
2017-03-24T19:20:27.896Z,0
2017-03-24T19:21:08.457Z,0
2017-03-24T19:21:49.051Z,0
2017-03-24T19:22:29.666Z,0
2017-03-24T19:23:10.314Z,0
2017-03-24T19:23:50.909Z,0
2017-03-24T19:24:32.493Z,0
2017-03-24T19:25:13.171Z,0
2017-03-24T19:25:53.791Z,0
2017-03-24T19:26:34.443Z,0
2017-03-24T19:27:15.073Z,0
2017-03-24T19:27:55.746Z,0
2017-03-24T19:28:36.403Z,0
2017-03-24T19:29:16.966Z,0
2017-03-24T19:29:57.653Z,0
2017-03-24T19:30:38.266Z,0
2017-03-24T19:31:18.863Z,0
2017-03-24T19:31:59.565Z,0
2017-03-24T19:32:40.216Z,0
2017-03-24T19:33:20.769Z,0
2017-03-24T19:34:01.573Z,0
2017-03-24T19:34:42.177Z,0
2017-03-24T19:35:22.734Z,0
2017-03-24T19:36:03.481Z,0
2017-03-24T19:36:44.138Z,0
2017-03-24T19:37:24.691Z,0
2017-03-24T19:38:05.340Z,0
2017-03-24T19:38:45.992Z,0
2017-03-24T19:39:26.547Z,0
2017-03-24T19:40:07.218Z,0
2017-03-24T19:40:47.853Z,0
2017-03-24T19:41:28.396Z,0
2017-03-24T19:42:09.056Z,0
2017-03-24T19:42:49.709Z,0
2017-03-24T19:43:30.285Z,0
2017-03-24T19:44:10.936Z,0
2017-03-24T19:44:51.565Z,0
2017-03-24T19:45:32.157Z,0
2017-03-24T19:46:12.787Z,0
2017-03-24T19:46:53.415Z,0
2017-03-24T19:47:34.090Z,0
2017-03-24T19:48:14.727Z,0
2017-03-24T19:48:55.384Z,0
2017-03-24T19:49:36.042Z,0
2017-03-24T19:50:17.208Z,0
2017-03-24T19:50:58.884Z,0
2017-03-24T19:51:39.479Z,0
2017-03-24T19:52:20.076Z,0
2017-03-24T19:53:00.749Z,0
2017-03-24T19:53:41.389Z,0
2017-03-24T19:54:23.064Z,0
2017-03-24T19:55:03.723Z,0
2017-03-24T19:55:45.394Z,0
2017-03-24T19:56:26.044Z,0
2017-03-24T19:57:06.691Z,0
2017-03-24T19:57:47.357Z,0
2017-03-24T19:58:28.003Z,0
2017-03-24T19:59:08.654Z,0
2017-03-24T19:59:49.302Z,0
2017-03-24T20:00:30.976Z,0
2017-03-24T20:01:12.552Z,0
2017-03-24T20:01:53.149Z,0
2017-03-24T20:02:33.847Z,0
2017-03-24T20:03:14.618Z,0
2017-03-24T20:03:55.278Z,0
2017-03-24T20:04:35.860Z,0
2017-03-24T20:05:16.630Z,0
2017-03-24T20:05:57.235Z,0
2017-03-24T20:06:37.881Z,0
2017-03-24T20:07:19.564Z,0
2017-03-24T20:08:00.214Z,0
2017-03-24T20:08:40.878Z,0
2017-03-24T20:09:21.520Z,0
2017-03-24T20:10:03.189Z,0
2017-03-24T20:10:43.850Z,0
2017-03-24T20:11:24.948Z,0
2017-03-24T20:12:05.558Z,0
2017-03-24T20:12:47.260Z,0
2017-03-24T20:13:27.903Z,0
2017-03-24T20:14:08.545Z,0
2017-03-24T20:14:49.202Z,0
2017-03-24T20:15:29.847Z,0
2017-03-24T20:16:10.509Z,0
2017-03-24T20:16:51.094Z,0
2017-03-24T20:17:31.709Z,0
2017-03-24T20:18:12.369Z,0
2017-03-24T20:18:52.930Z,0
2017-03-24T20:19:33.573Z,0
2017-03-24T20:20:14.227Z,0
2017-03-24T20:20:54.826Z,0
2017-03-24T20:21:35.459Z,0
2017-03-24T20:22:16.084Z,0
2017-03-24T20:22:56.676Z,0
2017-03-24T20:23:37.270Z,0
2017-03-24T20:24:17.865Z,0
2017-03-24T20:24:58.442Z,0
2017-03-24T20:25:39.039Z,0
2017-03-24T20:26:20.716Z,0
2017-03-24T20:27:01.281Z,0
2017-03-24T20:27:41.883Z,0
2017-03-24T20:28:22.483Z,0
2017-03-24T20:29:03.129Z,0
2017-03-24T20:29:43.701Z,0
2017-03-24T20:30:24.283Z,0
2017-03-24T20:31:04.876Z,0
2017-03-24T20:31:45.533Z,0
2017-03-24T20:32:26.108Z,0
2017-03-24T20:33:06.688Z,0
2017-03-24T20:33:48.302Z,0
2017-03-24T20:34:28.973Z,0
2017-03-24T20:35:09.532Z,0
2017-03-24T20:35:50.148Z,0
2017-03-24T20:36:30.816Z,0
2017-03-24T20:37:11.474Z,0
2017-03-24T20:37:52.600Z,0
2017-03-24T20:38:33.257Z,0
2017-03-24T20:39:13.835Z,0
2017-03-24T20:39:54.490Z,0
2017-03-24T20:40:35.075Z,0
2017-03-24T20:41:15.818Z,0
2017-03-24T20:41:56.449Z,0
2017-03-24T20:42:37.023Z,0
2017-03-24T20:43:17.650Z,0
2017-03-24T20:43:58.307Z,0
2017-03-24T20:44:38.899Z,0
2017-03-24T20:45:19.509Z,0
2017-03-24T20:46:00.161Z,0
2017-03-24T20:46:40.724Z,0
2017-03-24T20:47:21.372Z,0
2017-03-24T20:48:02.011Z,0
2017-03-24T20:48:42.670Z,0
2017-03-24T20:49:23.198Z,0
2017-03-24T20:50:03.832Z,0
2017-03-24T20:50:45.452Z,0
2017-03-24T20:51:26.101Z,0
2017-03-24T20:52:06.812Z,0
2017-03-24T20:52:47.419Z,0
2017-03-24T20:53:28.059Z,0
2017-03-24T20:54:08.712Z,0
2017-03-24T20:54:50.388Z,0
2017-03-24T20:55:32.066Z,0
2017-03-24T20:56:12.717Z,0
2017-03-24T20:56:53.371Z,0
2017-03-24T20:57:34.133Z,0
2017-03-24T20:58:14.784Z,0
2017-03-24T20:58:55.432Z,0
2017-03-24T20:59:36.091Z,0
2017-03-24T21:00:16.749Z,0
2017-03-24T21:00:57.331Z,0
2017-03-24T21:01:37.895Z,0
2017-03-24T21:02:18.496Z,0
2017-03-24T21:02:59.159Z,0
2017-03-24T21:03:39.730Z,0
2017-03-24T21:04:20.304Z,0
2017-03-24T21:05:00.892Z,0
2017-03-24T21:05:41.552Z,0
2017-03-24T21:06:23.291Z,0
2017-03-24T21:07:04.298Z,0
2017-03-24T21:07:44.963Z,0
2017-03-24T21:08:26.633Z,0
2017-03-24T21:09:08.306Z,0
2017-03-24T21:09:49.880Z,0
2017-03-24T21:10:30.536Z,0
2017-03-24T21:11:11.189Z,0
2017-03-24T21:11:51.849Z,0
2017-03-24T21:12:32.496Z,0
2017-03-24T21:13:13.163Z,0
2017-03-24T21:13:53.801Z,0
2017-03-24T21:14:35.377Z,0
2017-03-24T21:15:16.030Z,0
2017-03-24T21:15:56.693Z,0
2017-03-24T21:16:37.335Z,0
2017-03-24T21:17:17.979Z,0
2017-03-24T21:17:58.638Z,0
2017-03-24T21:18:39.294Z,0
2017-03-24T21:19:19.952Z,0
2017-03-24T21:20:00.622Z,0
2017-03-24T21:20:41.246Z,0
2017-03-24T21:21:21.911Z,0
2017-03-24T21:22:02.563Z,0
2017-03-24T21:22:43.214Z,0
2017-03-24T21:23:23.869Z,0
2017-03-24T21:24:04.555Z,0
2017-03-24T21:24:45.164Z,0
2017-03-24T21:25:25.817Z,0
2017-03-24T21:26:06.383Z,0
2017-03-24T21:26:47.071Z,0
2017-03-24T21:27:27.712Z,0
2017-03-24T21:28:08.334Z,0
2017-03-24T21:28:48.901Z,0
2017-03-24T21:29:29.494Z,0
2017-03-24T21:30:10.089Z,0
2017-03-24T21:30:50.739Z,0
2017-03-24T21:31:31.361Z,0
2017-03-24T21:32:11.984Z,0
2017-03-24T21:32:52.595Z,0
2017-03-24T21:33:33.243Z,0
2017-03-24T21:34:13.836Z,0
2017-03-24T21:34:54.499Z,0
2017-03-24T21:35:35.093Z,0
2017-03-24T21:36:15.762Z,0
2017-03-24T21:36:56.328Z,0
2017-03-24T21:37:37.929Z,0
2017-03-24T21:38:18.548Z,0
2017-03-24T21:38:59.178Z,0
2017-03-24T21:39:39.749Z,0
2017-03-24T21:40:20.329Z,0
2017-03-24T21:41:00.937Z,0
2017-03-24T21:41:41.611Z,0
2017-03-24T21:42:22.175Z,0
2017-03-24T21:43:02.820Z,0
2017-03-24T21:43:43.458Z,0
2017-03-24T21:44:24.109Z,0
2017-03-24T21:45:04.810Z,0
2017-03-24T21:45:48.768Z,0
2017-03-24T21:46:29.442Z,0
2017-03-24T21:47:10.635Z,0
2017-03-24T21:47:51.311Z,0
2017-03-24T21:48:32.331Z,0
2017-03-24T21:49:13.180Z,0
2017-03-24T21:49:53.758Z,0
2017-03-24T21:50:34.423Z,0
2017-03-24T21:51:15.142Z,0
2017-03-24T21:51:56.822Z,0
2017-03-24T21:52:37.398Z,0
2017-03-24T21:53:18.084Z,0
2017-03-24T21:53:58.789Z,0
2017-03-24T21:54:39.435Z,0
2017-03-24T21:55:19.991Z,0
2017-03-24T21:56:01.769Z,0
2017-03-24T21:56:42.411Z,0
2017-03-24T21:57:23.068Z,0
2017-03-24T21:58:03.643Z,0
2017-03-24T21:58:44.327Z,0
2017-03-24T21:59:25.035Z,0
2017-03-24T22:00:05.676Z,0
2017-03-24T22:00:46.259Z,0
2017-03-24T22:01:26.985Z,0
2017-03-24T22:02:07.638Z,0
2017-03-24T22:02:48.293Z,0
2017-03-24T22:03:28.954Z,0
2017-03-24T22:04:09.598Z,0
2017-03-24T22:04:50.259Z,0
2017-03-24T22:05:30.897Z,0
2017-03-24T22:06:11.504Z,0
2017-03-24T22:06:52.162Z,0
2017-03-24T22:07:32.894Z,0
2017-03-24T22:08:13.502Z,0
2017-03-24T22:08:54.067Z,0
2017-03-24T22:09:34.812Z,0
2017-03-24T22:10:15.473Z,0
2017-03-24T22:10:56.129Z,0
2017-03-24T22:11:36.700Z,0
2017-03-24T22:12:17.425Z,0
2017-03-24T22:12:58.090Z,0
2017-03-24T22:13:38.743Z,0
2017-03-24T22:14:19.317Z,0
2017-03-24T22:14:59.996Z,0
2017-03-24T22:15:40.730Z,0
2017-03-24T22:16:21.449Z,0
2017-03-24T22:17:02.076Z,0
2017-03-24T22:17:42.757Z,0
2017-03-24T22:18:23.416Z,0
2017-03-24T22:19:03.981Z,0
2017-03-24T22:19:44.608Z,0
2017-03-24T22:20:25.278Z,0
2017-03-24T22:21:05.847Z,0
2017-03-24T22:21:46.585Z,0
2017-03-24T22:22:28.255Z,0
2017-03-24T22:23:09.923Z,0
2017-03-24T22:23:50.577Z,0
2017-03-24T22:24:31.242Z,0
2017-03-24T22:25:11.853Z,0
2017-03-24T22:25:52.539Z,0
2017-03-24T22:26:33.200Z,0
2017-03-24T22:27:13.845Z,0
2017-03-24T22:27:54.505Z,0
2017-03-24T22:28:35.156Z,0
2017-03-24T22:29:15.808Z,0
2017-03-24T22:29:56.460Z,0
2017-03-24T22:30:37.114Z,0
2017-03-24T22:31:18.820Z,0
2017-03-24T22:31:59.566Z,0
2017-03-24T22:32:40.191Z,0
2017-03-24T22:33:20.841Z,0
2017-03-24T22:34:01.544Z,0
2017-03-24T22:34:42.157Z,0
2017-03-24T22:35:22.892Z,0
2017-03-24T22:36:03.570Z,0
2017-03-24T22:36:44.201Z,0
2017-03-24T22:37:24.927Z,0
2017-03-24T22:38:05.547Z,0
2017-03-24T22:38:46.224Z,0
2017-03-24T22:39:26.833Z,0
2017-03-24T22:40:07.475Z,0
2017-03-24T22:40:48.136Z,0
2017-03-24T22:41:28.790Z,0
2017-03-24T22:42:09.435Z,0
2017-03-24T22:42:50.085Z,0
2017-03-24T22:43:30.739Z,0
2017-03-24T22:44:11.387Z,0
2017-03-24T22:44:52.048Z,0
2017-03-24T22:45:32.698Z,0
2017-03-24T22:46:13.394Z,0
2017-03-24T22:46:53.977Z,0
2017-03-24T22:47:34.633Z,0
2017-03-24T22:48:15.302Z,0
2017-03-24T22:48:55.971Z,0
2017-03-24T22:49:36.543Z,0
2017-03-24T22:50:17.159Z,0
2017-03-24T22:50:57.896Z,0
2017-03-24T22:51:38.468Z,0
2017-03-24T22:52:20.158Z,0
2017-03-24T22:53:01.847Z,0
2017-03-24T22:53:42.487Z,0
2017-03-24T22:54:23.133Z,0
2017-03-24T22:55:03.793Z,0
2017-03-24T22:55:44.438Z,0
2017-03-24T22:56:25.024Z,0
2017-03-24T22:57:05.614Z,0
2017-03-24T22:57:46.210Z,0
2017-03-24T22:58:26.846Z,0
2017-03-24T22:59:07.420Z,0
2017-03-24T22:59:48.022Z,0
2017-03-24T23:00:28.615Z,0
2017-03-24T23:01:09.253Z,0
2017-03-24T23:01:49.915Z,0
2017-03-24T23:02:30.562Z,0
2017-03-24T23:03:11.236Z,0
2017-03-24T23:03:51.871Z,0
2017-03-24T23:04:32.527Z,0
2017-03-24T23:05:13.176Z,0
2017-03-24T23:05:53.830Z,0
2017-03-24T23:06:34.405Z,0
2017-03-24T23:07:15.000Z,0
2017-03-24T23:07:55.606Z,0
2017-03-24T23:08:36.279Z,0
2017-03-24T23:09:16.895Z,0
2017-03-24T23:09:57.486Z,0
2017-03-24T23:10:39.117Z,0
2017-03-24T23:11:19.773Z,0
2017-03-24T23:12:01.441Z,0
2017-03-24T23:12:42.102Z,0
2017-03-24T23:13:22.755Z,0
2017-03-24T23:14:03.412Z,0
2017-03-24T23:14:44.081Z,0
2017-03-24T23:15:24.716Z,0
2017-03-24T23:16:05.282Z,0
2017-03-24T23:16:45.860Z,0
2017-03-24T23:17:26.485Z,0
2017-03-24T23:18:07.153Z,0
2017-03-24T23:18:47.715Z,0
2017-03-24T23:19:28.365Z,0
2017-03-24T23:20:08.973Z,0
2017-03-24T23:20:49.628Z,0
2017-03-24T23:21:30.207Z,0
2017-03-24T23:22:10.888Z,0
2017-03-24T23:22:51.482Z,0
2017-03-24T23:23:32.139Z,0
2017-03-24T23:24:12.725Z,0
2017-03-24T23:24:53.412Z,0
2017-03-24T23:25:34.012Z,0
2017-03-24T23:26:14.646Z,0
2017-03-24T23:26:55.298Z,0
2017-03-24T23:27:35.949Z,0
2017-03-24T23:28:16.611Z,0
2017-03-24T23:28:58.279Z,0
2017-03-24T23:29:38.937Z,0
2017-03-24T23:30:20.623Z,0
2017-03-24T23:31:01.294Z,0
2017-03-24T23:31:41.853Z,0
2017-03-24T23:32:22.538Z,0
2017-03-24T23:33:03.126Z,0
2017-03-24T23:33:43.774Z,0
2017-03-24T23:34:24.355Z,0
2017-03-24T23:35:05.039Z,0
2017-03-24T23:35:45.635Z,0
2017-03-24T23:36:27.319Z,0
2017-03-24T23:37:07.939Z,0
2017-03-24T23:37:48.575Z,0
2017-03-24T23:38:29.196Z,0
2017-03-24T23:39:09.817Z,0
2017-03-24T23:39:50.376Z,0
2017-03-24T23:40:30.975Z,0
2017-03-24T23:41:11.581Z,0
2017-03-24T23:41:53.251Z,0
2017-03-24T23:42:33.809Z,0
2017-03-24T23:43:15.476Z,0
2017-03-24T23:43:56.137Z,0
2017-03-24T23:44:36.701Z,0
2017-03-24T23:45:17.357Z,0
2017-03-24T23:45:57.976Z,0
2017-03-24T23:46:38.550Z,0
2017-03-24T23:47:19.174Z,0
2017-03-24T23:47:59.849Z,0
2017-03-24T23:48:40.492Z,0
2017-03-24T23:49:21.066Z,0
2017-03-24T23:50:01.683Z,0
2017-03-24T23:50:42.360Z,0
2017-03-24T23:51:23.018Z,0
2017-03-24T23:52:03.609Z,0
2017-03-24T23:52:44.271Z,0
2017-03-24T23:53:24.867Z,0
2017-03-24T23:54:06.602Z,0
2017-03-24T23:54:47.184Z,0
2017-03-24T23:55:27.749Z,0
2017-03-24T23:56:08.400Z,0
2017-03-24T23:56:49.063Z,0
2017-03-24T23:57:29.617Z,0
2017-03-24T23:58:10.225Z,0
2017-03-24T23:58:50.803Z,0
2017-03-24T23:59:31.465Z,0
